sensor_id;sensor_type;location;lat;lon;timestamp;P1;durP1;ratioP1;P2;durP2;ratioP2
63438;SDS011;49567;48.958;8.294;2023-05-19T00:01:34;1999.90;;;999.90;;
63438;SDS011;49567;48.958;8.294;2023-05-19T00:04:01;1999.90;;;999.90;;
63438;SDS011;49567;48.958;8.294;2023-05-19T00:06:29;1999.90;;;999.90;;
63438;SDS011;49567;48.958;8.294;2023-05-19T00:08:57;1999.90;;;999.90;;
63438;SDS011;49567;48.958;8.294;2023-05-19T00:11:24;1999.90;;;999.90;;
63438;SDS011;49567;48.958;8.294;2023-05-19T00:13:51;1999.90;;;999.90;;
63438;SDS011;49567;48.958;8.294;2023-05-19T00:16:18;1999.90;;;999.90;;
63438;SDS011;49567;48.958;8.294;2023-05-19T00:18:43;1999.90;;;999.90;;
63438;SDS011;49567;48.958;8.294;2023-05-19T00:21:09;1999.90;;;999.90;;
63438;SDS011;49567;48.958;8.294;2023-05-19T00:23:34;1999.90;;;999.90;;
63438;SDS011;49567;48.958;8.294;2023-05-19T00:25:59;1999.90;;;999.90;;
63438;SDS011;49567;48.958;8.294;2023-05-19T00:28:25;1999.90;;;999.90;;
63438;SDS011;49567;48.958;8.294;2023-05-19T00:30:50;1999.90;;;999.90;;
63438;SDS011;49567;48.958;8.294;2023-05-19T00:33:15;1999.90;;;999.90;;
63438;SDS011;49567;48.958;8.294;2023-05-19T00:35:41;1999.90;;;999.90;;
63438;SDS011;49567;48.958;8.294;2023-05-19T00:38:06;1999.90;;;999.90;;
63438;SDS011;49567;48.958;8.294;2023-05-19T00:40:32;1999.90;;;999.90;;
63438;SDS011;49567;48.958;8.294;2023-05-19T00:43:00;1999.90;;;999.90;;
63438;SDS011;49567;48.958;8.294;2023-05-19T00:45:25;1999.90;;;999.90;;
63438;SDS011;49567;48.958;8.294;2023-05-19T00:47:51;1999.90;;;999.90;;
63438;SDS011;49567;48.958;8.294;2023-05-19T00:50:16;1999.90;;;999.90;;
63438;SDS011;49567;48.958;8.294;2023-05-19T00:52:42;1999.90;;;999.90;;
63438;SDS011;49567;48.958;8.294;2023-05-19T00:55:07;1999.90;;;999.90;;
63438;SDS011;49567;48.958;8.294;2023-05-19T00:57:33;1999.90;;;999.90;;
63438;SDS011;49567;48.958;8.294;2023-05-19T00:59:59;1999.90;;;999.90;;
63438;SDS011;49567;48.958;8.294;2023-05-19T01:02:25;1999.90;;;999.90;;
63438;SDS011;49567;48.958;8.294;2023-05-19T01:04:50;1999.90;;;999.90;;
63438;SDS011;49567;48.958;8.294;2023-05-19T01:07:17;1999.90;;;999.90;;
63438;SDS011;49567;48.958;8.294;2023-05-19T01:09:44;1999.90;;;999.90;;
63438;SDS011;49567;48.958;8.294;2023-05-19T01:12:11;1999.90;;;999.90;;
63438;SDS011;49567;48.958;8.294;2023-05-19T01:14:36;1999.90;;;999.90;;
63438;SDS011;49567;48.958;8.294;2023-05-19T01:17:18;1999.90;;;999.90;;
63438;SDS011;49567;48.958;8.294;2023-05-19T01:25:59;1736.63;;;566.88;;
63438;SDS011;49567;48.958;8.294;2023-05-19T01:28:42;1999.90;;;999.90;;
63438;SDS011;49567;48.958;8.294;2023-05-19T01:31:25;1999.90;;;482.92;;
63438;SDS011;49567;48.958;8.294;2023-05-19T01:33:51;1999.90;;;730.47;;
63438;SDS011;49567;48.958;8.294;2023-05-19T01:36:18;1999.90;;;644.30;;
63438;SDS011;49567;48.958;8.294;2023-05-19T01:38:45;1999.90;;;909.90;;
63438;SDS011;49567;48.958;8.294;2023-05-19T01:41:13;1999.90;;;878.45;;
63438;SDS011;49567;48.958;8.294;2023-05-19T01:43:40;1999.90;;;576.35;;
63438;SDS011;49567;48.958;8.294;2023-05-19T01:46:05;1999.90;;;676.47;;
63438;SDS011;49567;48.958;8.294;2023-05-19T01:48:32;1999.90;;;732.53;;
63438;SDS011;49567;48.958;8.294;2023-05-19T01:50:58;1999.90;;;774.28;;
63438;SDS011;49567;48.958;8.294;2023-05-19T01:53:23;1999.90;;;961.80;;
63438;SDS011;49567;48.958;8.294;2023-05-19T01:55:50;1999.90;;;999.90;;
63438;SDS011;49567;48.958;8.294;2023-05-19T02:04:00;1999.90;;;999.90;;
63438;SDS011;49567;48.958;8.294;2023-05-19T02:09:25;1999.90;;;999.90;;
63438;SDS011;49567;48.958;8.294;2023-05-19T02:17:33;1697.30;;;999.90;;
63438;SDS011;49567;48.958;8.294;2023-05-19T02:20:02;949.97;;;848.35;;
63438;SDS011;49567;48.958;8.294;2023-05-19T02:22:29;1304.18;;;970.47;;
63438;SDS011;49567;48.958;8.294;2023-05-19T02:24:54;522.43;;;482.77;;
63438;SDS011;49567;48.958;8.294;2023-05-19T02:27:21;375.42;;;349.27;;
63438;SDS011;49567;48.958;8.294;2023-05-19T02:29:47;254.95;;;240.35;;
63438;SDS011;49567;48.958;8.294;2023-05-19T02:32:13;311.40;;;291.60;;
63438;SDS011;49567;48.958;8.294;2023-05-19T02:34:38;120.13;;;113.80;;
63438;SDS011;49567;48.958;8.294;2023-05-19T02:37:06;31.33;;;29.63;;
63438;SDS011;49567;48.958;8.294;2023-05-19T02:39:31;17.63;;;16.37;;
63438;SDS011;49567;48.958;8.294;2023-05-19T02:41:59;9.82;;;9.23;;
63438;SDS011;49567;48.958;8.294;2023-05-19T02:44:24;6.30;;;4.22;;
63438;SDS011;49567;48.958;8.294;2023-05-19T02:46:49;4.07;;;3.67;;
63438;SDS011;49567;48.958;8.294;2023-05-19T02:49:15;7.70;;;5.27;;
63438;SDS011;49567;48.958;8.294;2023-05-19T02:51:40;5.28;;;4.78;;
63438;SDS011;49567;48.958;8.294;2023-05-19T02:54:05;6.53;;;2.30;;
63438;SDS011;49567;48.958;8.294;2023-05-19T02:56:31;2.93;;;2.60;;
63438;SDS011;49567;48.958;8.294;2023-05-19T02:58:56;4.07;;;2.65;;
63438;SDS011;49567;48.958;8.294;2023-05-19T03:01:22;8.90;;;2.45;;
63438;SDS011;49567;48.958;8.294;2023-05-19T03:03:47;11.13;;;4.53;;
63438;SDS011;49567;48.958;8.294;2023-05-19T03:06:13;8.27;;;3.37;;
63438;SDS011;49567;48.958;8.294;2023-05-19T03:08:39;5.43;;;2.75;;
63438;SDS011;49567;48.958;8.294;2023-05-19T03:11:04;6.20;;;2.40;;
63438;SDS011;49567;48.958;8.294;2023-05-19T03:13:30;3.60;;;2.23;;
63438;SDS011;49567;48.958;8.294;2023-05-19T03:15:56;3.47;;;2.70;;
63438;SDS011;49567;48.958;8.294;2023-05-19T03:18:22;6.15;;;2.80;;
63438;SDS011;49567;48.958;8.294;2023-05-19T03:20:48;4.15;;;1.73;;
63438;SDS011;49567;48.958;8.294;2023-05-19T03:23:14;6.87;;;2.27;;
63438;SDS011;49567;48.958;8.294;2023-05-19T03:25:39;4.20;;;2.20;;
63438;SDS011;49567;48.958;8.294;2023-05-19T03:28:05;7.53;;;2.13;;
63438;SDS011;49567;48.958;8.294;2023-05-19T03:30:30;4.47;;;1.92;;
63438;SDS011;49567;48.958;8.294;2023-05-19T03:32:55;5.33;;;2.10;;
63438;SDS011;49567;48.958;8.294;2023-05-19T03:35:20;6.20;;;2.00;;
63438;SDS011;49567;48.958;8.294;2023-05-19T03:37:46;3.53;;;2.25;;
63438;SDS011;49567;48.958;8.294;2023-05-19T03:40:11;4.23;;;2.10;;
63438;SDS011;49567;48.958;8.294;2023-05-19T03:42:37;5.57;;;2.20;;
63438;SDS011;49567;48.958;8.294;2023-05-19T03:45:02;3.43;;;1.77;;
63438;SDS011;49567;48.958;8.294;2023-05-19T03:47:28;5.82;;;2.00;;
63438;SDS011;49567;48.958;8.294;2023-05-19T03:49:53;5.93;;;2.20;;
63438;SDS011;49567;48.958;8.294;2023-05-19T03:52:18;7.00;;;2.17;;
63438;SDS011;49567;48.958;8.294;2023-05-19T03:54:44;3.63;;;1.47;;
63438;SDS011;49567;48.958;8.294;2023-05-19T03:57:09;3.47;;;1.87;;
63438;SDS011;49567;48.958;8.294;2023-05-19T03:59:35;3.13;;;1.60;;
63438;SDS011;49567;48.958;8.294;2023-05-19T04:02:01;2.85;;;1.42;;
63438;SDS011;49567;48.958;8.294;2023-05-19T04:04:26;7.83;;;1.70;;
63438;SDS011;49567;48.958;8.294;2023-05-19T04:06:52;10.35;;;2.50;;
63438;SDS011;49567;48.958;8.294;2023-05-19T04:09:17;3.30;;;1.90;;
63438;SDS011;49567;48.958;8.294;2023-05-19T04:11:43;3.03;;;1.70;;
63438;SDS011;49567;48.958;8.294;2023-05-19T04:14:08;7.00;;;2.20;;
63438;SDS011;49567;48.958;8.294;2023-05-19T04:16:34;6.18;;;1.80;;
63438;SDS011;49567;48.958;8.294;2023-05-19T04:18:59;3.50;;;1.70;;
63438;SDS011;49567;48.958;8.294;2023-05-19T04:21:25;4.77;;;2.10;;
63438;SDS011;49567;48.958;8.294;2023-05-19T04:23:51;7.47;;;1.95;;
63438;SDS011;49567;48.958;8.294;2023-05-19T04:26:16;5.95;;;2.13;;
63438;SDS011;49567;48.958;8.294;2023-05-19T04:28:43;6.75;;;2.08;;
63438;SDS011;49567;48.958;8.294;2023-05-19T04:31:09;6.05;;;2.40;;
63438;SDS011;49567;48.958;8.294;2023-05-19T04:33:38;2.42;;;1.90;;
63438;SDS011;49567;48.958;8.294;2023-05-19T04:36:04;4.13;;;2.10;;
63438;SDS011;49567;48.958;8.294;2023-05-19T04:38:35;6.85;;;2.30;;
63438;SDS011;49567;48.958;8.294;2023-05-19T04:41:02;4.57;;;1.92;;
63438;SDS011;49567;48.958;8.294;2023-05-19T04:43:28;4.88;;;2.17;;
63438;SDS011;49567;48.958;8.294;2023-05-19T04:45:53;3.90;;;1.60;;
63438;SDS011;49567;48.958;8.294;2023-05-19T04:48:18;3.40;;;1.70;;
63438;SDS011;49567;48.958;8.294;2023-05-19T04:50:45;5.90;;;1.92;;
63438;SDS011;49567;48.958;8.294;2023-05-19T04:53:12;3.70;;;1.63;;
63438;SDS011;49567;48.958;8.294;2023-05-19T04:55:38;3.07;;;1.60;;
63438;SDS011;49567;48.958;8.294;2023-05-19T04:58:03;5.80;;;1.60;;
63438;SDS011;49567;48.958;8.294;2023-05-19T05:00:28;6.07;;;1.70;;
63438;SDS011;49567;48.958;8.294;2023-05-19T05:02:54;2.60;;;1.70;;
63438;SDS011;49567;48.958;8.294;2023-05-19T05:05:21;3.88;;;1.90;;
63438;SDS011;49567;48.958;8.294;2023-05-19T05:07:46;6.83;;;2.20;;
63438;SDS011;49567;48.958;8.294;2023-05-19T05:10:13;4.13;;;1.88;;
63438;SDS011;49567;48.958;8.294;2023-05-19T05:12:39;3.43;;;1.90;;
63438;SDS011;49567;48.958;8.294;2023-05-19T05:15:07;4.50;;;1.80;;
63438;SDS011;49567;48.958;8.294;2023-05-19T05:17:33;7.07;;;1.95;;
63438;SDS011;49567;48.958;8.294;2023-05-19T05:19:59;8.85;;;2.25;;
63438;SDS011;49567;48.958;8.294;2023-05-19T05:22:25;5.37;;;1.90;;
63438;SDS011;49567;48.958;8.294;2023-05-19T05:24:51;4.17;;;1.93;;
63438;SDS011;49567;48.958;8.294;2023-05-19T05:27:17;3.75;;;1.65;;
63438;SDS011;49567;48.958;8.294;2023-05-19T05:29:42;6.87;;;2.07;;
63438;SDS011;49567;48.958;8.294;2023-05-19T05:32:07;5.10;;;2.00;;
63438;SDS011;49567;48.958;8.294;2023-05-19T05:34:33;5.50;;;1.70;;
63438;SDS011;49567;48.958;8.294;2023-05-19T05:36:59;6.32;;;2.40;;
63438;SDS011;49567;48.958;8.294;2023-05-19T05:39:25;4.10;;;2.00;;
63438;SDS011;49567;48.958;8.294;2023-05-19T05:41:51;3.08;;;1.95;;
63438;SDS011;49567;48.958;8.294;2023-05-19T05:44:17;3.67;;;2.30;;
63438;SDS011;49567;48.958;8.294;2023-05-19T05:46:42;4.40;;;1.97;;
63438;SDS011;49567;48.958;8.294;2023-05-19T05:49:08;3.87;;;1.97;;
63438;SDS011;49567;48.958;8.294;2023-05-19T05:51:33;5.00;;;1.92;;
63438;SDS011;49567;48.958;8.294;2023-05-19T05:53:59;5.07;;;2.15;;
63438;SDS011;49567;48.958;8.294;2023-05-19T05:56:26;6.43;;;2.05;;
63438;SDS011;49567;48.958;8.294;2023-05-19T05:58:52;5.35;;;1.70;;
63438;SDS011;49567;48.958;8.294;2023-05-19T06:01:17;5.17;;;1.80;;
63438;SDS011;49567;48.958;8.294;2023-05-19T06:03:43;6.07;;;1.90;;
63438;SDS011;49567;48.958;8.294;2023-05-19T06:06:09;4.88;;;1.83;;
63438;SDS011;49567;48.958;8.294;2023-05-19T06:08:35;5.10;;;2.05;;
63438;SDS011;49567;48.958;8.294;2023-05-19T06:11:00;4.83;;;2.37;;
63438;SDS011;49567;48.958;8.294;2023-05-19T06:13:32;6.70;;;2.10;;
63438;SDS011;49567;48.958;8.294;2023-05-19T06:15:57;3.22;;;1.90;;
63438;SDS011;49567;48.958;8.294;2023-05-19T06:18:22;4.73;;;1.73;;
63438;SDS011;49567;48.958;8.294;2023-05-19T06:20:48;4.60;;;1.77;;
63438;SDS011;49567;48.958;8.294;2023-05-19T06:23:13;9.83;;;1.97;;
63438;SDS011;49567;48.958;8.294;2023-05-19T06:25:38;4.83;;;1.57;;
63438;SDS011;49567;48.958;8.294;2023-05-19T06:28:04;9.27;;;1.80;;
63438;SDS011;49567;48.958;8.294;2023-05-19T06:30:29;4.53;;;1.80;;
63438;SDS011;49567;48.958;8.294;2023-05-19T06:32:55;3.40;;;1.57;;
63438;SDS011;49567;48.958;8.294;2023-05-19T06:35:20;1.92;;;1.38;;
63438;SDS011;49567;48.958;8.294;2023-05-19T06:37:45;3.93;;;1.60;;
63438;SDS011;49567;48.958;8.294;2023-05-19T06:40:11;4.27;;;1.80;;
63438;SDS011;49567;48.958;8.294;2023-05-19T06:42:36;5.00;;;1.58;;
63438;SDS011;49567;48.958;8.294;2023-05-19T06:45:02;3.13;;;1.67;;
63438;SDS011;49567;48.958;8.294;2023-05-19T06:47:27;4.07;;;2.10;;
63438;SDS011;49567;48.958;8.294;2023-05-19T06:49:52;2.73;;;1.50;;
63438;SDS011;49567;48.958;8.294;2023-05-19T06:52:21;4.75;;;2.00;;
63438;SDS011;49567;48.958;8.294;2023-05-19T06:54:47;6.80;;;1.85;;
63438;SDS011;49567;48.958;8.294;2023-05-19T06:57:12;3.15;;;1.60;;
63438;SDS011;49567;48.958;8.294;2023-05-19T06:59:38;5.97;;;1.80;;
63438;SDS011;49567;48.958;8.294;2023-05-19T07:02:05;2.73;;;1.80;;
63438;SDS011;49567;48.958;8.294;2023-05-19T07:04:31;2.95;;;1.60;;
63438;SDS011;49567;48.958;8.294;2023-05-19T07:06:56;4.07;;;2.20;;
63438;SDS011;49567;48.958;8.294;2023-05-19T07:09:22;4.88;;;1.67;;
63438;SDS011;49567;48.958;8.294;2023-05-19T07:11:48;3.28;;;1.60;;
63438;SDS011;49567;48.958;8.294;2023-05-19T07:14:13;3.43;;;1.90;;
63438;SDS011;49567;48.958;8.294;2023-05-19T07:16:38;6.93;;;1.50;;
63438;SDS011;49567;48.958;8.294;2023-05-19T07:19:03;3.65;;;1.77;;
63438;SDS011;49567;48.958;8.294;2023-05-19T07:21:29;7.90;;;2.00;;
63438;SDS011;49567;48.958;8.294;2023-05-19T07:23:54;6.05;;;2.20;;
63438;SDS011;49567;48.958;8.294;2023-05-19T07:26:19;4.47;;;1.97;;
63438;SDS011;49567;48.958;8.294;2023-05-19T07:28:46;4.88;;;1.90;;
63438;SDS011;49567;48.958;8.294;2023-05-19T07:31:11;4.50;;;1.70;;
63438;SDS011;49567;48.958;8.294;2023-05-19T07:33:37;5.00;;;1.67;;
63438;SDS011;49567;48.958;8.294;2023-05-19T07:36:02;7.43;;;2.72;;
63438;SDS011;49567;48.958;8.294;2023-05-19T07:38:28;5.75;;;2.33;;
63438;SDS011;49567;48.958;8.294;2023-05-19T07:40:55;6.63;;;2.35;;
63438;SDS011;49567;48.958;8.294;2023-05-19T07:43:20;5.67;;;1.77;;
63438;SDS011;49567;48.958;8.294;2023-05-19T07:45:45;5.60;;;1.87;;
63438;SDS011;49567;48.958;8.294;2023-05-19T07:48:11;4.13;;;2.00;;
63438;SDS011;49567;48.958;8.294;2023-05-19T07:50:36;3.87;;;2.10;;
63438;SDS011;49567;48.958;8.294;2023-05-19T07:53:01;4.22;;;1.92;;
63438;SDS011;49567;48.958;8.294;2023-05-19T07:55:27;3.83;;;1.90;;
63438;SDS011;49567;48.958;8.294;2023-05-19T07:57:52;2.43;;;1.83;;
63438;SDS011;49567;48.958;8.294;2023-05-19T08:00:17;6.23;;;2.17;;
63438;SDS011;49567;48.958;8.294;2023-05-19T08:02:43;3.50;;;2.00;;
63438;SDS011;49567;48.958;8.294;2023-05-19T08:05:09;4.18;;;2.13;;
63438;SDS011;49567;48.958;8.294;2023-05-19T08:07:34;7.20;;;2.30;;
63438;SDS011;49567;48.958;8.294;2023-05-19T08:10:00;4.80;;;2.20;;
63438;SDS011;49567;48.958;8.294;2023-05-19T08:12:25;4.57;;;2.60;;
63438;SDS011;49567;48.958;8.294;2023-05-19T08:14:50;8.30;;;2.53;;
63438;SDS011;49567;48.958;8.294;2023-05-19T08:17:16;4.93;;;2.35;;
63438;SDS011;49567;48.958;8.294;2023-05-19T08:19:41;6.43;;;2.40;;
63438;SDS011;49567;48.958;8.294;2023-05-19T08:22:06;2.83;;;2.27;;
63438;SDS011;49567;48.958;8.294;2023-05-19T08:24:32;7.35;;;3.13;;
63438;SDS011;49567;48.958;8.294;2023-05-19T08:26:57;7.20;;;4.60;;
63438;SDS011;49567;48.958;8.294;2023-05-19T08:29:23;6.55;;;3.83;;
63438;SDS011;49567;48.958;8.294;2023-05-19T08:31:48;6.53;;;4.20;;
63438;SDS011;49567;48.958;8.294;2023-05-19T08:34:13;7.23;;;6.40;;
63438;SDS011;49567;48.958;8.294;2023-05-19T08:36:39;118.57;;;111.17;;
63438;SDS011;49567;48.958;8.294;2023-05-19T08:39:08;1751.72;;;880.50;;
63438;SDS011;49567;48.958;8.294;2023-05-19T08:41:33;1326.22;;;835.00;;
63438;SDS011;49567;48.958;8.294;2023-05-19T08:43:59;1511.00;;;895.40;;
63438;SDS011;49567;48.958;8.294;2023-05-19T08:46:24;1999.90;;;999.90;;
63438;SDS011;49567;48.958;8.294;2023-05-19T08:48:51;1999.90;;;999.90;;
63438;SDS011;49567;48.958;8.294;2023-05-19T08:51:32;1999.90;;;999.90;;
63438;SDS011;49567;48.958;8.294;2023-05-19T08:54:23;1999.90;;;831.78;;
63438;SDS011;49567;48.958;8.294;2023-05-19T08:56:53;1999.90;;;831.05;;
63438;SDS011;49567;48.958;8.294;2023-05-19T08:59:19;1999.90;;;395.40;;
63438;SDS011;49567;48.958;8.294;2023-05-19T09:01:46;1998.25;;;581.92;;
63438;SDS011;49567;48.958;8.294;2023-05-19T09:04:12;1999.90;;;999.90;;
63438;SDS011;49567;48.958;8.294;2023-05-19T09:06:39;1999.90;;;999.90;;
63438;SDS011;49567;48.958;8.294;2023-05-19T09:09:09;1999.90;;;999.90;;
63438;SDS011;49567;48.958;8.294;2023-05-19T09:11:34;1999.90;;;999.90;;
63438;SDS011;49567;48.958;8.294;2023-05-19T09:14:01;1999.90;;;999.90;;
63438;SDS011;49567;48.958;8.294;2023-05-19T09:16:27;1999.90;;;999.90;;
63438;SDS011;49567;48.958;8.294;2023-05-19T09:18:53;1999.90;;;999.90;;
63438;SDS011;49567;48.958;8.294;2023-05-19T09:21:28;1999.90;;;999.90;;
63438;SDS011;49567;48.958;8.294;2023-05-19T09:23:55;1999.90;;;999.90;;
63438;SDS011;49567;48.958;8.294;2023-05-19T09:26:39;1999.90;;;999.90;;
63438;SDS011;49567;48.958;8.294;2023-05-19T09:29:10;1999.90;;;999.90;;
63438;SDS011;49567;48.958;8.294;2023-05-19T09:31:36;1999.90;;;999.90;;
63438;SDS011;49567;48.958;8.294;2023-05-19T09:34:02;1999.90;;;999.90;;
63438;SDS011;49567;48.958;8.294;2023-05-19T09:36:28;1999.90;;;999.90;;
63438;SDS011;49567;48.958;8.294;2023-05-19T09:38:53;1999.90;;;999.90;;
63438;SDS011;49567;48.958;8.294;2023-05-19T09:41:18;1999.90;;;999.90;;
63438;SDS011;49567;48.958;8.294;2023-05-19T09:43:45;1999.90;;;999.90;;
63438;SDS011;49567;48.958;8.294;2023-05-19T09:46:19;1726.80;;;854.35;;
63438;SDS011;49567;48.958;8.294;2023-05-19T09:48:55;1832.40;;;849.92;;
63438;SDS011;49567;48.958;8.294;2023-05-19T09:51:21;1579.57;;;749.45;;
63438;SDS011;49567;48.958;8.294;2023-05-19T09:53:47;1999.90;;;999.90;;
63438;SDS011;49567;48.958;8.294;2023-05-19T09:56:13;1999.90;;;999.90;;
63438;SDS011;49567;48.958;8.294;2023-05-19T09:58:40;1999.90;;;999.90;;
63438;SDS011;49567;48.958;8.294;2023-05-19T10:01:06;1999.90;;;999.90;;
63438;SDS011;49567;48.958;8.294;2023-05-19T10:03:32;1999.90;;;999.90;;
63438;SDS011;49567;48.958;8.294;2023-05-19T10:05:59;1999.90;;;999.90;;
63438;SDS011;49567;48.958;8.294;2023-05-19T10:08:25;1999.90;;;999.90;;
63438;SDS011;49567;48.958;8.294;2023-05-19T10:10:53;1999.90;;;999.90;;
63438;SDS011;49567;48.958;8.294;2023-05-19T10:13:19;1371.22;;;999.90;;
63438;SDS011;49567;48.958;8.294;2023-05-19T10:15:45;1143.50;;;999.90;;
63438;SDS011;49567;48.958;8.294;2023-05-19T10:18:12;429.67;;;397.67;;
63438;SDS011;49567;48.958;8.294;2023-05-19T10:20:41;11.07;;;10.13;;
63438;SDS011;49567;48.958;8.294;2023-05-19T10:23:07;3.93;;;2.00;;
63438;SDS011;49567;48.958;8.294;2023-05-19T10:25:33;4.57;;;2.75;;
63438;SDS011;49567;48.958;8.294;2023-05-19T10:28:02;4.10;;;1.90;;
63438;SDS011;49567;48.958;8.294;2023-05-19T10:30:32;4.75;;;1.60;;
63438;SDS011;49567;48.958;8.294;2023-05-19T10:33:00;3.25;;;1.60;;
63438;SDS011;49567;48.958;8.294;2023-05-19T10:43:34;3.25;;;1.40;;
63438;SDS011;49567;48.958;8.294;2023-05-19T10:46:07;2.28;;;1.45;;
63438;SDS011;49567;48.958;8.294;2023-05-19T10:48:33;3.53;;;1.40;;
63438;SDS011;49567;48.958;8.294;2023-05-19T10:51:01;3.33;;;1.58;;
63438;SDS011;49567;48.958;8.294;2023-05-19T10:53:31;3.10;;;1.30;;
63438;SDS011;49567;48.958;8.294;2023-05-19T10:55:57;3.72;;;1.50;;
63438;SDS011;49567;48.958;8.294;2023-05-19T11:01:13;2.17;;;1.10;;
63438;SDS011;49567;48.958;8.294;2023-05-19T11:03:52;2.70;;;1.10;;
63438;SDS011;49567;48.958;8.294;2023-05-19T11:11:52;3.15;;;1.20;;
63438;SDS011;49567;48.958;8.294;2023-05-19T11:14:25;5.20;;;1.55;;
63438;SDS011;49567;48.958;8.294;2023-05-19T11:16:51;2.22;;;1.42;;
63438;SDS011;49567;48.958;8.294;2023-05-19T11:19:30;1.97;;;1.47;;
63438;SDS011;49567;48.958;8.294;2023-05-19T11:22:14;4.13;;;1.00;;
63438;SDS011;49567;48.958;8.294;2023-05-19T11:24:43;3.47;;;0.95;;
63438;SDS011;49567;48.958;8.294;2023-05-19T11:27:30;1.23;;;1.00;;
63438;SDS011;49567;48.958;8.294;2023-05-19T11:30:00;3.50;;;1.33;;
63438;SDS011;49567;48.958;8.294;2023-05-19T11:32:33;2.25;;;1.67;;
63438;SDS011;49567;48.958;8.294;2023-05-19T11:35:03;5.75;;;1.30;;
63438;SDS011;49567;48.958;8.294;2023-05-19T11:37:30;3.53;;;1.30;;
63438;SDS011;49567;48.958;8.294;2023-05-19T11:39:56;3.50;;;1.10;;
63438;SDS011;49567;48.958;8.294;2023-05-19T11:42:22;2.83;;;1.40;;
63438;SDS011;49567;48.958;8.294;2023-05-19T11:44:47;1.35;;;1.00;;
63438;SDS011;49567;48.958;8.294;2023-05-19T11:47:19;2.95;;;1.42;;
63438;SDS011;49567;48.958;8.294;2023-05-19T11:49:48;2.65;;;1.33;;
63438;SDS011;49567;48.958;8.294;2023-05-19T11:52:15;1.60;;;1.38;;
63438;SDS011;49567;48.958;8.294;2023-05-19T11:54:41;2.50;;;1.43;;
63438;SDS011;49567;48.958;8.294;2023-05-19T11:57:09;4.03;;;1.50;;
63438;SDS011;49567;48.958;8.294;2023-05-19T11:59:36;2.58;;;1.10;;
63438;SDS011;49567;48.958;8.294;2023-05-19T12:02:15;4.13;;;1.25;;
63438;SDS011;49567;48.958;8.294;2023-05-19T12:04:40;3.13;;;1.30;;
63438;SDS011;49567;48.958;8.294;2023-05-19T12:07:06;5.83;;;1.60;;
63438;SDS011;49567;48.958;8.294;2023-05-19T12:09:32;4.45;;;1.50;;
63438;SDS011;49567;48.958;8.294;2023-05-19T12:11:57;1.52;;;1.10;;
63438;SDS011;49567;48.958;8.294;2023-05-19T12:14:24;3.03;;;1.33;;
63438;SDS011;49567;48.958;8.294;2023-05-19T12:16:50;5.30;;;1.13;;
63438;SDS011;49567;48.958;8.294;2023-05-19T12:19:22;5.00;;;1.73;;
63438;SDS011;49567;48.958;8.294;2023-05-19T12:21:53;7.18;;;3.85;;
63438;SDS011;49567;48.958;8.294;2023-05-19T12:24:19;12.48;;;11.45;;
63438;SDS011;49567;48.958;8.294;2023-05-19T12:26:45;8.68;;;7.10;;
63438;SDS011;49567;48.958;8.294;2023-05-19T12:29:11;4.82;;;4.20;;
63438;SDS011;49567;48.958;8.294;2023-05-19T12:31:37;4.35;;;3.88;;
63438;SDS011;49567;48.958;8.294;2023-05-19T12:34:03;10.15;;;9.40;;
63438;SDS011;49567;48.958;8.294;2023-05-19T12:36:30;19.40;;;17.80;;
63438;SDS011;49567;48.958;8.294;2023-05-19T12:38:55;150.45;;;139.85;;
63438;SDS011;49567;48.958;8.294;2023-05-19T12:41:22;122.63;;;113.35;;
63438;SDS011;49567;48.958;8.294;2023-05-19T12:43:48;286.92;;;266.20;;
63438;SDS011;49567;48.958;8.294;2023-05-19T12:46:14;881.63;;;809.20;;
63438;SDS011;49567;48.958;8.294;2023-05-19T12:48:43;957.87;;;872.93;;
63438;SDS011;49567;48.958;8.294;2023-05-19T12:51:09;1681.95;;;999.90;;
63438;SDS011;49567;48.958;8.294;2023-05-19T12:53:38;1999.90;;;999.90;;
63438;SDS011;49567;48.958;8.294;2023-05-19T12:56:13;1999.90;;;999.90;;
63438;SDS011;49567;48.958;8.294;2023-05-19T12:58:40;1999.90;;;999.90;;
63438;SDS011;49567;48.958;8.294;2023-05-19T13:01:06;1999.90;;;999.90;;
63438;SDS011;49567;48.958;8.294;2023-05-19T13:03:38;1999.90;;;999.90;;
63438;SDS011;49567;48.958;8.294;2023-05-19T13:06:05;1999.90;;;999.90;;
63438;SDS011;49567;48.958;8.294;2023-05-19T13:08:30;1999.90;;;999.90;;
63438;SDS011;49567;48.958;8.294;2023-05-19T13:10:56;1839.78;;;841.83;;
63438;SDS011;49567;48.958;8.294;2023-05-19T13:13:21;1999.90;;;999.90;;
63438;SDS011;49567;48.958;8.294;2023-05-19T13:15:47;1999.90;;;999.90;;
63438;SDS011;49567;48.958;8.294;2023-05-19T13:18:12;1546.40;;;770.37;;
63438;SDS011;49567;48.958;8.294;2023-05-19T13:20:38;1999.90;;;999.90;;
63438;SDS011;49567;48.958;8.294;2023-05-19T13:23:06;1999.90;;;999.90;;
63438;SDS011;49567;48.958;8.294;2023-05-19T13:25:34;1999.90;;;999.90;;
63438;SDS011;49567;48.958;8.294;2023-05-19T13:28:00;1999.90;;;999.90;;
63438;SDS011;49567;48.958;8.294;2023-05-19T13:30:33;1999.90;;;999.90;;
63438;SDS011;49567;48.958;8.294;2023-05-19T13:32:59;1999.90;;;999.90;;
63438;SDS011;49567;48.958;8.294;2023-05-19T13:35:25;1999.90;;;999.90;;
63438;SDS011;49567;48.958;8.294;2023-05-19T13:37:50;1999.90;;;999.90;;
63438;SDS011;49567;48.958;8.294;2023-05-19T13:40:18;1999.90;;;999.90;;
63438;SDS011;49567;48.958;8.294;2023-05-19T13:42:44;1999.90;;;999.90;;
63438;SDS011;49567;48.958;8.294;2023-05-19T13:45:10;1999.90;;;999.90;;
63438;SDS011;49567;48.958;8.294;2023-05-19T13:47:37;1999.90;;;999.90;;
63438;SDS011;49567;48.958;8.294;2023-05-19T13:50:03;1999.90;;;999.90;;
63438;SDS011;49567;48.958;8.294;2023-05-19T13:52:29;1999.90;;;999.90;;
63438;SDS011;49567;48.958;8.294;2023-05-19T13:54:54;1999.90;;;999.90;;
63438;SDS011;49567;48.958;8.294;2023-05-19T13:57:20;1999.90;;;999.90;;
63438;SDS011;49567;48.958;8.294;2023-05-19T13:59:47;1999.90;;;999.90;;
63438;SDS011;49567;48.958;8.294;2023-05-19T14:02:12;1999.90;;;999.90;;
63438;SDS011;49567;48.958;8.294;2023-05-19T14:04:38;1999.90;;;999.90;;
63438;SDS011;49567;48.958;8.294;2023-05-19T14:07:04;1999.90;;;999.90;;
63438;SDS011;49567;48.958;8.294;2023-05-19T14:09:30;1999.90;;;999.90;;
63438;SDS011;49567;48.958;8.294;2023-05-19T14:11:55;1999.90;;;999.90;;
63438;SDS011;49567;48.958;8.294;2023-05-19T14:14:21;1999.90;;;999.90;;
63438;SDS011;49567;48.958;8.294;2023-05-19T14:16:46;1999.90;;;999.90;;
63438;SDS011;49567;48.958;8.294;2023-05-19T14:19:12;1999.90;;;999.90;;
63438;SDS011;49567;48.958;8.294;2023-05-19T14:21:37;1999.90;;;999.90;;
63438;SDS011;49567;48.958;8.294;2023-05-19T14:24:02;1133.57;;;999.90;;
63438;SDS011;49567;48.958;8.294;2023-05-19T14:26:28;1232.57;;;999.90;;
63438;SDS011;49567;48.958;8.294;2023-05-19T14:28:53;891.83;;;811.73;;
63438;SDS011;49567;48.958;8.294;2023-05-19T14:31:20;449.45;;;410.25;;
63438;SDS011;49567;48.958;8.294;2023-05-19T14:33:46;919.50;;;834.25;;
63438;SDS011;49567;48.958;8.294;2023-05-19T14:36:11;1036.33;;;942.77;;
63438;SDS011;49567;48.958;8.294;2023-05-19T14:38:36;1856.13;;;999.90;;
63438;SDS011;49567;48.958;8.294;2023-05-19T14:41:01;1999.90;;;999.90;;
63438;SDS011;49567;48.958;8.294;2023-05-19T14:43:27;1999.90;;;999.90;;
63438;SDS011;49567;48.958;8.294;2023-05-19T14:45:52;1999.90;;;999.90;;
63438;SDS011;49567;48.958;8.294;2023-05-19T14:48:22;1999.90;;;999.90;;
63438;SDS011;49567;48.958;8.294;2023-05-19T14:50:47;938.00;;;854.93;;
63438;SDS011;49567;48.958;8.294;2023-05-19T14:53:13;932.38;;;847.45;;